createdAt,value
2024-05-09T00:12:39.261Z,99.90
2024-05-09T00:23:44.189Z,99.90
2024-05-09T00:37:34.769Z,99.90
2024-05-09T00:43:23.461Z,99.90
2024-05-09T00:51:44.965Z,99.90
2024-05-09T00:57:16.396Z,99.90
2024-05-09T01:11:10.783Z,99.90
2024-05-09T01:22:15.643Z,99.90
2024-05-09T01:30:36.814Z,99.90
2024-05-09T01:41:42.579Z,99.90
2024-05-09T01:49:59.181Z,99.90
2024-05-09T01:58:17.989Z,99.90
2024-05-09T02:09:20.526Z,99.90
2024-05-09T02:14:54.814Z,99.90
2024-05-09T02:23:21.715Z,99.90
2024-05-09T02:34:26.148Z,99.90
2024-05-09T02:39:54.270Z,99.90
2024-05-09T02:45:22.233Z,99.90
2024-05-09T02:48:14.305Z,99.90
2024-05-09T02:50:57.116Z,99.90
2024-05-09T02:56:25.758Z,99.90
2024-05-09T02:59:11.066Z,99.90
2024-05-09T03:01:53.703Z,99.90
2024-05-09T03:07:25.125Z,99.90
2024-05-09T03:10:18.334Z,99.90
2024-05-09T03:13:09.998Z,99.90
2024-05-09T03:24:09.627Z,99.90
2024-05-09T03:26:52.171Z,99.90
2024-05-09T03:29:37.495Z,99.90
2024-05-09T03:35:05.713Z,99.90
2024-05-09T03:37:53.700Z,99.90
2024-05-09T03:40:38.932Z,99.90
2024-05-09T03:59:53.128Z,99.90
2024-05-09T04:02:38.404Z,99.90
2024-05-09T04:05:21.198Z,99.90
2024-05-09T04:08:06.894Z,99.90
2024-05-09T04:13:37.745Z,99.90
2024-05-09T04:16:22.939Z,99.90
2024-05-09T04:19:05.624Z,99.90
2024-05-09T04:21:50.824Z,99.90
2024-05-09T04:27:21.460Z,99.90
2024-05-09T04:30:12.223Z,99.90
2024-05-09T04:35:44.376Z,99.90
2024-05-09T04:38:30.411Z,99.90
2024-05-09T04:41:13.058Z,99.90
2024-05-09T04:44:01.125Z,99.90
2024-05-09T04:46:43.659Z,99.90
2024-05-09T04:49:28.945Z,99.90
2024-05-09T05:00:35.918Z,99.90
2024-05-09T05:06:06.570Z,99.90
2024-05-09T05:08:49.078Z,99.90
2024-05-09T05:11:34.329Z,99.90
2024-05-09T05:14:17.001Z,99.90
2024-05-09T05:17:05.041Z,99.90
2024-05-09T05:19:47.895Z,99.90
2024-05-09T05:22:33.201Z,99.90
2024-05-09T05:25:15.705Z,99.90
2024-05-09T05:30:44.113Z,99.90
2024-05-09T05:33:32.079Z,99.90
2024-05-09T05:36:14.769Z,99.90
2024-05-09T05:41:42.681Z,99.90
2024-05-09T05:44:28.010Z,99.90
2024-05-09T05:49:59.175Z,99.90
2024-05-09T05:52:41.661Z,99.90
2024-05-09T05:55:27.305Z,99.90
2024-05-09T05:58:10.128Z,99.90
2024-05-09T06:00:56.256Z,99.90
2024-05-09T06:03:39.504Z,99.90
2024-05-09T06:06:27.501Z,99.90
2024-05-09T06:11:55.513Z,99.90
2024-05-09T06:14:38.485Z,99.90
2024-05-09T06:17:23.840Z,99.90
2024-05-09T06:20:13.229Z,99.90
2024-05-09T06:23:05.340Z,99.90
2024-05-09T06:25:48.035Z,99.90
2024-05-09T06:28:33.458Z,99.90
2024-05-09T06:31:16.620Z,99.90
2024-05-09T06:34:04.550Z,99.90
2024-05-09T06:36:47.112Z,99.90
2024-05-09T06:39:34.994Z,99.90
2024-05-09T06:42:17.500Z,99.40
2024-05-09T06:53:22.755Z,99.40
2024-05-09T06:56:11.162Z,99.90
2024-05-09T06:58:54.522Z,99.90
2024-05-09T07:01:39.833Z,98.00
2024-05-09T07:04:22.710Z,98.40
2024-05-09T07:07:09.392Z,97.40
2024-05-09T07:12:40.037Z,92.40
2024-05-09T07:15:22.611Z,91.30
2024-05-09T07:18:13.835Z,90.90
2024-05-09T07:23:45.160Z,91.00
2024-05-09T07:29:17.136Z,90.70
2024-05-09T07:31:59.759Z,90.20
2024-05-09T07:34:45.086Z,90.60
2024-05-09T07:37:27.801Z,90.70
2024-05-09T07:40:21.258Z,90.00
2024-05-09T07:43:11.886Z,90.20
2024-05-09T07:46:28.314Z,89.60
2024-05-09T07:53:21.635Z,90.40
2024-05-09T07:54:58.968Z,90.50
2024-05-09T07:57:41.597Z,90.50
2024-05-09T08:00:30.888Z,90.50
2024-05-09T08:03:19.863Z,90.50
2024-05-09T08:06:02.509Z,90.40
2024-05-09T08:08:49.214Z,90.40
2024-05-09T08:11:33.197Z,90.80
2024-05-09T08:14:18.436Z,91.60
2024-05-09T08:17:03.642Z,91.60
2024-05-09T08:19:48.947Z,91.60
2024-05-09T08:22:36.324Z,92.10
2024-05-09T08:25:18.808Z,91.90
2024-05-09T08:28:04.022Z,91.10
2024-05-09T08:33:34.541Z,91.60
2024-05-09T08:36:20.180Z,91.60
2024-05-09T08:39:05.411Z,91.80
2024-05-09T08:41:51.199Z,91.70
2024-05-09T08:47:19.929Z,91.50
2024-05-09T08:50:11.031Z,92.00
2024-05-09T08:53:04.508Z,93.50
2024-05-09T08:55:48.987Z,94.10
2024-05-09T08:58:35.062Z,94.50
2024-05-09T09:01:19.283Z,96.30
2024-05-09T09:04:06.874Z,94.80
2024-05-09T09:06:53.228Z,95.60
2024-05-09T09:09:45.394Z,94.40
2024-05-09T09:12:28.226Z,94.00
2024-05-09T09:17:58.040Z,94.20
2024-05-09T09:20:43.567Z,94.20
2024-05-09T09:23:28.462Z,94.40
2024-05-09T09:29:02.044Z,94.70
2024-05-09T09:31:47.206Z,95.00
2024-05-09T09:34:31.179Z,94.70
2024-05-09T09:37:17.267Z,95.90
2024-05-09T09:40:00.024Z,96.10
2024-05-09T09:53:50.358Z,97.90
2024-05-09T09:56:33.771Z,97.40
2024-05-09T09:59:21.658Z,97.60
2024-05-09T10:07:36.469Z,98.20
2024-05-09T10:10:30.197Z,97.70
2024-05-09T10:16:12.071Z,98.00
2024-05-09T10:18:57.491Z,98.00
2024-05-09T10:21:47.129Z,96.90
2024-05-09T10:24:47.229Z,95.80
2024-05-09T10:27:33.258Z,95.60
2024-05-09T10:30:33.820Z,95.80
2024-05-09T10:33:23.266Z,94.60
2024-05-09T10:36:14.315Z,94.30
2024-05-09T10:38:56.856Z,93.00
2024-05-09T10:41:42.264Z,92.70
2024-05-09T10:47:10.328Z,92.30
2024-05-09T10:49:56.836Z,90.40
2024-05-09T10:52:42.901Z,89.30
2024-05-09T10:58:20.146Z,83.50
2024-05-09T11:01:06.250Z,77.80
2024-05-09T11:03:52.925Z,77.40
2024-05-09T11:06:39.607Z,74.40
2024-05-09T11:12:08.689Z,73.50
2024-05-09T11:14:57.336Z,73.10
2024-05-09T11:17:40.028Z,75.00
2024-05-09T11:20:29.571Z,72.80
2024-05-09T11:23:15.508Z,72.00
2024-05-09T11:26:01.591Z,72.40
2024-05-09T11:28:45.454Z,71.80
2024-05-09T11:31:30.769Z,72.10
2024-05-09T11:34:13.360Z,72.70
2024-05-09T11:36:58.801Z,72.10
2024-05-09T11:39:44.386Z,72.80
2024-05-09T11:42:29.813Z,70.00
2024-05-09T11:45:12.536Z,69.30
2024-05-09T11:47:58.000Z,70.50
2024-05-09T11:50:40.721Z,69.10
2024-05-09T11:53:26.148Z,69.70
2024-05-09T11:56:12.088Z,68.20
2024-05-09T12:01:40.308Z,69.90
2024-05-09T12:04:25.815Z,71.20
2024-05-09T12:07:11.313Z,70.20
2024-05-09T12:09:57.512Z,69.80
2024-05-09T12:12:42.733Z,71.00
2024-05-09T12:18:11.531Z,73.10
2024-05-09T12:20:56.689Z,72.00
2024-05-09T12:23:39.262Z,73.40
2024-05-09T12:26:24.578Z,71.70
2024-05-09T12:29:09.872Z,69.50
2024-05-09T12:31:54.996Z,69.30
2024-05-09T12:34:37.730Z,70.00
2024-05-09T12:37:23.135Z,69.00
2024-05-09T12:40:12.740Z,70.10
2024-05-09T12:43:03.697Z,67.90
2024-05-09T12:45:49.411Z,67.30
2024-05-09T12:51:17.786Z,70.30
2024-05-09T12:56:46.180Z,69.80
2024-05-09T12:59:31.417Z,70.20
2024-05-09T13:02:19.591Z,70.50
2024-05-09T13:05:02.435Z,71.70
2024-05-09T13:07:48.306Z,71.10
2024-05-09T13:10:32.880Z,71.90
2024-05-09T13:13:18.992Z,72.90
2024-05-09T13:16:01.868Z,75.20
2024-05-09T13:18:49.819Z,75.00
2024-05-09T13:21:32.523Z,73.20
2024-05-09T13:24:19.081Z,74.70
2024-05-09T13:27:01.638Z,75.60
2024-05-09T13:32:32.524Z,78.70
2024-05-09T13:35:17.884Z,79.40
2024-05-09T13:38:05.006Z,79.40
2024-05-09T13:40:48.549Z,79.70
2024-05-09T13:43:34.105Z,78.40
2024-05-09T13:46:16.814Z,77.50
2024-05-09T13:49:02.315Z,77.80
2024-05-09T13:51:50.283Z,75.80
2024-05-09T13:54:32.957Z,75.10
2024-05-09T13:57:18.305Z,75.40
2024-05-09T14:00:00.868Z,74.50
2024-05-09T14:02:47.066Z,74.40
2024-05-09T14:05:29.775Z,73.00
2024-05-09T14:08:19.968Z,73.80
2024-05-09T14:11:05.262Z,74.90
2024-05-09T14:13:47.842Z,76.90
2024-05-09T14:16:33.359Z,78.30
2024-05-09T14:19:16.368Z,78.60
2024-05-09T14:22:01.841Z,78.20
2024-05-09T14:24:47.143Z,76.90
2024-05-09T14:30:22.880Z,74.10
2024-05-09T14:33:17.500Z,74.60
2024-05-09T14:38:45.640Z,74.60
2024-05-09T14:41:31.585Z,75.60
2024-05-09T14:44:16.735Z,76.50
2024-05-09T14:46:59.940Z,76.70
2024-05-09T14:49:45.410Z,77.50
2024-05-09T14:52:28.025Z,78.50
2024-05-09T14:55:13.295Z,79.20
2024-05-09T14:57:58.730Z,81.30
2024-05-09T15:00:49.725Z,82.60
2024-05-09T15:06:20.568Z,85.00
2024-05-09T15:09:04.014Z,84.20
2024-05-09T15:14:34.846Z,87.10
2024-05-09T15:17:20.184Z,87.50
2024-05-09T15:20:04.491Z,88.00
2024-05-09T15:22:52.594Z,88.50
2024-05-09T15:33:53.352Z,91.10
2024-05-09T15:42:06.987Z,93.60
2024-05-09T15:44:53.379Z,94.10
2024-05-09T15:50:35.124Z,94.90
2024-05-09T15:53:24.561Z,94.50
2024-05-09T15:58:52.857Z,95.30
2024-05-09T16:04:23.865Z,97.50
2024-05-09T16:07:06.544Z,98.60
2024-05-09T16:09:51.941Z,99.30
2024-05-09T16:12:34.553Z,99.90
2024-05-09T16:15:19.858Z,99.90
2024-05-09T16:20:51.030Z,99.90
2024-05-09T16:23:39.331Z,99.90
2024-05-09T16:26:21.978Z,99.90
2024-05-09T16:29:07.406Z,99.90
2024-05-09T16:31:50.243Z,99.90
2024-05-09T16:34:35.441Z,99.90
2024-05-09T16:37:20.878Z,99.90
2024-05-09T16:40:09.923Z,99.00
2024-05-09T16:42:57.835Z,97.40
2024-05-09T16:45:44.810Z,97.70
2024-05-09T16:48:27.626Z,98.50
2024-05-09T16:53:58.625Z,97.80
2024-05-09T16:59:26.661Z,96.80
2024-05-09T17:02:12.392Z,96.60
2024-05-09T17:04:55.466Z,96.40
2024-05-09T17:07:40.911Z,94.40
2024-05-09T17:10:32.106Z,94.10
2024-05-09T17:13:19.970Z,95.10
2024-05-09T17:16:05.512Z,97.00
2024-05-09T17:18:51.688Z,98.60
2024-05-09T17:21:34.301Z,98.70
2024-05-09T17:27:05.454Z,99.90
2024-05-09T17:29:50.892Z,99.90
2024-05-09T17:35:19.822Z,99.90
2024-05-09T17:38:02.494Z,99.90
2024-05-09T17:40:47.916Z,99.90
2024-05-09T17:43:33.260Z,99.90
2024-05-09T17:46:18.561Z,99.90
2024-05-09T17:49:01.652Z,99.90
2024-05-09T17:51:54.739Z,99.90
2024-05-09T17:54:37.326Z,99.90
2024-05-09T17:57:22.755Z,99.90
2024-05-09T18:02:57.291Z,99.90
2024-05-09T18:05:40.113Z,99.90
2024-05-09T18:08:25.474Z,99.90
2024-05-09T18:13:54.304Z,99.90
2024-05-09T18:16:39.585Z,99.90
2024-05-09T18:22:07.990Z,99.90
2024-05-09T18:30:28.065Z,99.90
2024-05-09T18:36:04.700Z,99.90
2024-05-09T18:41:32.926Z,99.90
2024-05-09T18:44:18.641Z,99.90
2024-05-09T18:47:01.229Z,99.90
2024-05-09T18:52:33.917Z,99.90
2024-05-09T19:06:24.839Z,99.90
2024-05-09T19:11:52.937Z,99.90
2024-05-09T19:14:35.552Z,99.90
2024-05-09T19:20:05.953Z,99.90
2024-05-09T19:22:54.058Z,99.90
2024-05-09T19:28:22.239Z,99.90
2024-05-09T19:31:05.117Z,99.90
2024-05-09T19:33:50.662Z,99.90
2024-05-09T19:39:21.555Z,99.90
2024-05-09T19:42:04.545Z,99.90
2024-05-09T19:44:49.844Z,99.90
2024-05-09T19:47:32.773Z,99.90
2024-05-09T19:50:26.657Z,99.90
2024-05-09T19:53:15.609Z,99.90
2024-05-09T19:56:03.728Z,99.90
2024-05-09T19:58:46.412Z,99.90
2024-05-09T20:04:14.492Z,99.90
2024-05-09T20:15:15.383Z,99.90
2024-05-09T20:26:14.294Z,99.90
2024-05-09T20:29:02.141Z,99.90
2024-05-09T20:34:30.107Z,99.90
2024-05-09T20:37:12.893Z,99.90
2024-05-09T20:50:57.615Z,99.90
2024-05-09T20:56:25.931Z,99.90
2024-05-09T21:01:56.610Z,99.90
2024-05-09T21:04:39.500Z,99.90
2024-05-09T21:07:24.866Z,99.90
2024-05-09T21:13:05.352Z,99.90
2024-05-09T21:18:37.156Z,99.90
2024-05-09T21:24:05.451Z,99.90
2024-05-09T21:29:33.815Z,99.90
2024-05-09T21:37:50.648Z,99.90
2024-05-09T21:43:22.453Z,99.90
2024-05-09T21:48:50.770Z,99.90
2024-05-09T21:51:38.731Z,99.90
2024-05-09T21:54:21.341Z,99.90
2024-05-09T21:59:51.640Z,99.90
2024-05-09T22:05:22.703Z,99.90
2024-05-09T22:10:54.524Z,99.90
2024-05-09T22:16:23.392Z,99.90
2024-05-09T22:19:06.214Z,99.90
2024-05-09T22:41:12.236Z,99.90
2024-05-09T22:43:57.593Z,99.90
2024-05-09T22:46:40.252Z,99.90
2024-05-09T23:00:31.308Z,99.90
2024-05-09T23:03:16.631Z,99.90
2024-05-09T23:06:02.308Z,99.90
2024-05-09T23:11:30.483Z,99.90
2024-05-09T23:14:15.804Z,99.90
2024-05-09T23:17:01.149Z,99.90
2024-05-09T23:19:44.199Z,99.90
2024-05-09T23:25:12.892Z,99.90
2024-05-09T23:38:57.805Z,99.90
2024-05-09T23:44:25.761Z,99.90
2024-05-09T23:49:56.530Z,99.90
2024-05-09T23:55:24.571Z,99.90
